sensor_id;sensor_type;location;lat;lon;timestamp;pressure;altitude;pressure_sealevel;temperature;humidity
2214;BME280;1113;42.018;23.986;2022-12-29T00:01:38;93672.09;;;2.40;100.00
2214;BME280;1113;42.018;23.986;2022-12-29T00:04:04;93683.13;;;2.29;100.00
2214;BME280;1113;42.018;23.986;2022-12-29T00:06:32;93682.72;;;2.20;100.00
2214;BME280;1113;42.018;23.986;2022-12-29T00:08:58;93688.97;;;2.13;100.00
2214;BME280;1113;42.018;23.986;2022-12-29T00:11:27;93683.72;;;2.19;100.00
2214;BME280;1113;42.018;23.986;2022-12-29T00:13:55;93689.53;;;2.32;100.00
2214;BME280;1113;42.018;23.986;2022-12-29T00:16:42;93691.63;;;2.35;100.00
2214;BME280;1113;42.018;23.986;2022-12-29T00:19:11;93692.47;;;2.40;100.00
2214;BME280;1113;42.018;23.986;2022-12-29T00:21:52;93696.09;;;2.44;100.00
2214;BME280;1113;42.018;23.986;2022-12-29T00:24:36;93690.94;;;2.39;100.00
2214;BME280;1113;42.018;23.986;2022-12-29T00:27:20;93691.53;;;2.30;100.00
2214;BME280;1113;42.018;23.986;2022-12-29T00:30:10;93695.84;;;2.29;100.00
2214;BME280;1113;42.018;23.986;2022-12-29T00:32:55;93699.72;;;2.32;100.00
2214;BME280;1113;42.018;23.986;2022-12-29T00:35:43;93698.03;;;2.37;100.00
2214;BME280;1113;42.018;23.986;2022-12-29T00:38:12;93701.66;;;2.41;100.00
2214;BME280;1113;42.018;23.986;2022-12-29T00:40:57;93703.03;;;2.32;100.00
2214;BME280;1113;42.018;23.986;2022-12-29T00:43:41;93705.97;;;2.24;100.00
2214;BME280;1113;42.018;23.986;2022-12-29T00:46:26;93700.97;;;2.29;100.00
2214;BME280;1113;42.018;23.986;2022-12-29T00:48:53;93705.78;;;2.14;100.00
2214;BME280;1113;42.018;23.986;2022-12-29T00:51:37;93708.81;;;1.99;100.00
2214;BME280;1113;42.018;23.986;2022-12-29T00:54:04;93709.44;;;2.06;100.00
2214;BME280;1113;42.018;23.986;2022-12-29T00:56:31;93720.16;;;2.20;100.00
2214;BME280;1113;42.018;23.986;2022-12-29T00:59:00;93716.38;;;2.22;100.00
2214;BME280;1113;42.018;23.986;2022-12-29T01:01:28;93714.59;;;2.23;100.00
2214;BME280;1113;42.018;23.986;2022-12-29T01:03:55;93708.28;;;2.26;100.00
2214;BME280;1113;42.018;23.986;2022-12-29T01:06:22;93709.28;;;2.25;100.00
2214;BME280;1113;42.018;23.986;2022-12-29T01:08:49;93721.88;;;2.31;100.00
2214;BME280;1113;42.018;23.986;2022-12-29T01:11:37;93717.88;;;2.35;100.00
2214;BME280;1113;42.018;23.986;2022-12-29T01:14:03;93713.28;;;2.20;100.00
2214;BME280;1113;42.018;23.986;2022-12-29T01:16:32;93714.88;;;2.38;100.00
2214;BME280;1113;42.018;23.986;2022-12-29T01:18:59;93709.09;;;2.14;100.00
2214;BME280;1113;42.018;23.986;2022-12-29T01:21:25;93702.31;;;2.20;100.00
2214;BME280;1113;42.018;23.986;2022-12-29T01:23:52;93692.63;;;2.34;100.00
2214;BME280;1113;42.018;23.986;2022-12-29T01:26:19;93707.69;;;2.35;100.00
2214;BME280;1113;42.018;23.986;2022-12-29T01:28:46;93696.25;;;2.38;100.00
2214;BME280;1113;42.018;23.986;2022-12-29T01:31:14;93694.34;;;2.45;100.00
2214;BME280;1113;42.018;23.986;2022-12-29T01:33:43;93695.66;;;2.47;100.00
2214;BME280;1113;42.018;23.986;2022-12-29T01:36:11;93688.69;;;2.43;100.00
2214;BME280;1113;42.018;23.986;2022-12-29T01:38:39;93692.16;;;2.37;100.00
2214;BME280;1113;42.018;23.986;2022-12-29T01:41:07;93686.91;;;2.27;100.00
2214;BME280;1113;42.018;23.986;2022-12-29T01:43:40;93688.84;;;2.36;100.00
2214;BME280;1113;42.018;23.986;2022-12-29T01:46:19;93682.41;;;2.17;100.00
2214;BME280;1113;42.018;23.986;2022-12-29T01:48:52;93679.88;;;2.17;100.00
2214;BME280;1113;42.018;23.986;2022-12-29T01:51:21;93675.63;;;1.94;100.00
2214;BME280;1113;42.018;23.986;2022-12-29T01:53:49;93672.63;;;1.97;100.00
2214;BME280;1113;42.018;23.986;2022-12-29T01:56:17;93667.44;;;1.92;100.00
2214;BME280;1113;42.018;23.986;2022-12-29T01:58:48;93678.16;;;1.94;100.00
2214;BME280;1113;42.018;23.986;2022-12-29T02:01:18;93667.91;;;1.89;100.00
2214;BME280;1113;42.018;23.986;2022-12-29T02:03:46;93661.84;;;1.78;100.00
2214;BME280;1113;42.018;23.986;2022-12-29T02:06:18;93662.44;;;1.97;100.00
2214;BME280;1113;42.018;23.986;2022-12-29T02:08:49;93667.06;;;2.00;100.00
2214;BME280;1113;42.018;23.986;2022-12-29T02:11:17;93667.16;;;2.05;100.00
2214;BME280;1113;42.018;23.986;2022-12-29T02:13:44;93673.41;;;1.98;100.00
2214;BME280;1113;42.018;23.986;2022-12-29T02:16:21;93671.94;;;2.02;100.00
2214;BME280;1113;42.018;23.986;2022-12-29T02:19:03;93664.72;;;2.10;100.00
2214;BME280;1113;42.018;23.986;2022-12-29T02:21:55;93655.44;;;2.04;100.00
2214;BME280;1113;42.018;23.986;2022-12-29T02:28:00;93653.03;;;1.98;100.00
2214;BME280;1113;42.018;23.986;2022-12-29T02:30:58;93649.78;;;2.02;100.00
2214;BME280;1113;42.018;23.986;2022-12-29T02:33:42;93650.78;;;2.01;100.00
2214;BME280;1113;42.018;23.986;2022-12-29T02:36:20;93648.94;;;1.97;100.00
2214;BME280;1113;42.018;23.986;2022-12-29T02:38:59;93647.13;;;2.09;100.00
2214;BME280;1113;42.018;23.986;2022-12-29T02:41:32;93646.47;;;2.02;100.00
2214;BME280;1113;42.018;23.986;2022-12-29T02:44:04;93637.97;;;1.96;100.00
2214;BME280;1113;42.018;23.986;2022-12-29T02:46:39;93633.81;;;1.90;100.00
2214;BME280;1113;42.018;23.986;2022-12-29T02:49:12;93636.75;;;1.99;100.00
2214;BME280;1113;42.018;23.986;2022-12-29T02:51:49;93627.19;;;2.06;100.00
2214;BME280;1113;42.018;23.986;2022-12-29T02:54:17;93638.44;;;1.93;100.00
2214;BME280;1113;42.018;23.986;2022-12-29T02:57:07;93632.56;;;1.93;100.00
2214;BME280;1113;42.018;23.986;2022-12-29T02:59:35;93630.56;;;1.95;100.00
2214;BME280;1113;42.018;23.986;2022-12-29T03:02:28;93632.28;;;2.06;100.00
2214;BME280;1113;42.018;23.986;2022-12-29T03:05:08;93628.66;;;2.02;100.00
2214;BME280;1113;42.018;23.986;2022-12-29T03:07:45;93631.19;;;1.85;100.00
2214;BME280;1113;42.018;23.986;2022-12-29T03:10:22;93630.66;;;2.00;100.00
2214;BME280;1113;42.018;23.986;2022-12-29T03:13:04;93632.81;;;1.91;100.00
2214;BME280;1113;42.018;23.986;2022-12-29T03:16:03;93630.34;;;1.96;100.00
2214;BME280;1113;42.018;23.986;2022-12-29T03:18:39;93629.19;;;2.04;100.00
2214;BME280;1113;42.018;23.986;2022-12-29T03:21:11;93626.81;;;1.97;100.00
2214;BME280;1113;42.018;23.986;2022-12-29T03:23:41;93631.50;;;1.88;100.00
2214;BME280;1113;42.018;23.986;2022-12-29T03:26:10;93626.56;;;1.99;100.00
2214;BME280;1113;42.018;23.986;2022-12-29T03:28:40;93628.25;;;1.93;100.00
2214;BME280;1113;42.018;23.986;2022-12-29T03:31:09;93633.81;;;1.90;100.00
2214;BME280;1113;42.018;23.986;2022-12-29T03:33:38;93640.84;;;2.00;100.00
2214;BME280;1113;42.018;23.986;2022-12-29T03:36:12;93638.63;;;2.03;100.00
2214;BME280;1113;42.018;23.986;2022-12-29T03:38:45;93639.16;;;2.05;100.00
2214;BME280;1113;42.018;23.986;2022-12-29T03:41:15;93633.75;;;2.02;100.00
2214;BME280;1113;42.018;23.986;2022-12-29T03:43:43;93645.56;;;2.08;100.00
2214;BME280;1113;42.018;23.986;2022-12-29T03:46:10;93634.72;;;2.12;100.00
2214;BME280;1113;42.018;23.986;2022-12-29T03:48:38;93634.19;;;2.10;100.00
2214;BME280;1113;42.018;23.986;2022-12-29T03:51:05;93633.97;;;2.00;100.00
2214;BME280;1113;42.018;23.986;2022-12-29T03:53:32;93632.81;;;1.91;100.00
2214;BME280;1113;42.018;23.986;2022-12-29T03:55:59;93631.50;;;1.88;100.00
2214;BME280;1113;42.018;23.986;2022-12-29T03:58:25;93633.94;;;1.83;100.00
2214;BME280;1113;42.018;23.986;2022-12-29T04:00:52;93637.09;;;1.74;100.00
2214;BME280;1113;42.018;23.986;2022-12-29T04:03:19;93636.44;;;1.67;100.00
2214;BME280;1113;42.018;23.986;2022-12-29T04:05:47;93631.72;;;1.58;100.00
2214;BME280;1113;42.018;23.986;2022-12-29T04:08:14;93637.03;;;1.57;100.00
2214;BME280;1113;42.018;23.986;2022-12-29T04:10:40;93641.13;;;1.58;100.00
2214;BME280;1113;42.018;23.986;2022-12-29T04:13:07;93647.22;;;1.57;100.00
2214;BME280;1113;42.018;23.986;2022-12-29T04:15:34;93655.63;;;1.57;100.00
2214;BME280;1113;42.018;23.986;2022-12-29T04:18:01;93655.25;;;1.66;100.00
2214;BME280;1113;42.018;23.986;2022-12-29T04:20:27;93652.84;;;1.59;100.00
2214;BME280;1113;42.018;23.986;2022-12-29T04:23:13;93647.53;;;1.49;100.00
2214;BME280;1113;42.018;23.986;2022-12-29T04:25:40;93655.06;;;1.44;100.00
2214;BME280;1113;42.018;23.986;2022-12-29T04:28:06;93662.59;;;1.39;100.00
2214;BME280;1113;42.018;23.986;2022-12-29T04:30:33;93655.75;;;1.39;100.00
2214;BME280;1113;42.018;23.986;2022-12-29T04:33:00;93656.66;;;1.33;100.00
2214;BME280;1113;42.018;23.986;2022-12-29T04:35:27;93663.41;;;1.27;100.00
2214;BME280;1113;42.018;23.986;2022-12-29T04:37:54;93657.44;;;1.22;100.00
2214;BME280;1113;42.018;23.986;2022-12-29T04:40:22;93663.97;;;1.18;100.00
2214;BME280;1113;42.018;23.986;2022-12-29T04:42:49;93659.44;;;1.20;100.00
2214;BME280;1113;42.018;23.986;2022-12-29T04:45:16;93666.28;;;1.31;100.00
2214;BME280;1113;42.018;23.986;2022-12-29T04:47:43;93661.84;;;1.26;100.00
2214;BME280;1113;42.018;23.986;2022-12-29T04:50:10;93666.63;;;1.23;100.00
2214;BME280;1113;42.018;23.986;2022-12-29T04:52:37;93665.06;;;1.22;100.00
2214;BME280;1113;42.018;23.986;2022-12-29T04:55:04;93671.59;;;1.30;100.00
2214;BME280;1113;42.018;23.986;2022-12-29T04:57:33;93664.84;;;1.23;100.00
2214;BME280;1113;42.018;23.986;2022-12-29T05:00:00;93673.81;;;1.26;100.00
2214;BME280;1113;42.018;23.986;2022-12-29T05:02:26;93668.81;;;1.31;100.00
2214;BME280;1113;42.018;23.986;2022-12-29T05:04:53;93664.72;;;1.30;100.00
2214;BME280;1113;42.018;23.986;2022-12-29T05:07:20;93662.63;;;1.27;100.00
2214;BME280;1113;42.018;23.986;2022-12-29T05:09:47;93663.31;;;1.22;100.00
2214;BME280;1113;42.018;23.986;2022-12-29T05:12:13;93671.25;;;1.03;100.00
2214;BME280;1113;42.018;23.986;2022-12-29T05:14:42;93672.03;;;1.15;100.00
2214;BME280;1113;42.018;23.986;2022-12-29T05:17:08;93669.84;;;1.18;100.00
2214;BME280;1113;42.018;23.986;2022-12-29T05:19:35;93674.78;;;1.02;100.00
2214;BME280;1113;42.018;23.986;2022-12-29T05:22:03;93673.69;;;0.86;100.00
2214;BME280;1113;42.018;23.986;2022-12-29T05:24:30;93675.69;;;0.95;100.00
2214;BME280;1113;42.018;23.986;2022-12-29T05:26:57;93677.47;;;1.07;100.00
2214;BME280;1113;42.018;23.986;2022-12-29T05:29:23;93673.72;;;1.09;100.00
2214;BME280;1113;42.018;23.986;2022-12-29T05:31:51;93665.41;;;1.14;100.00
2214;BME280;1113;42.018;23.986;2022-12-29T05:34:18;93681.22;;;1.16;100.00
2214;BME280;1113;42.018;23.986;2022-12-29T05:36:45;93676.34;;;1.14;100.00
2214;BME280;1113;42.018;23.986;2022-12-29T05:39:12;93679.13;;;1.13;100.00
2214;BME280;1113;42.018;23.986;2022-12-29T05:41:38;93670.41;;;1.09;100.00
2214;BME280;1113;42.018;23.986;2022-12-29T05:44:05;93676.91;;;1.05;100.00
2214;BME280;1113;42.018;23.986;2022-12-29T05:46:32;93667.84;;;0.97;100.00
2214;BME280;1113;42.018;23.986;2022-12-29T05:49:00;93673.91;;;0.96;100.00
2214;BME280;1113;42.018;23.986;2022-12-29T05:51:29;93674.25;;;0.88;100.00
2214;BME280;1113;42.018;23.986;2022-12-29T05:53:56;93680.00;;;0.83;100.00
2214;BME280;1113;42.018;23.986;2022-12-29T05:56:23;93672.47;;;0.77;100.00
2214;BME280;1113;42.018;23.986;2022-12-29T05:58:50;93679.34;;;0.76;100.00
2214;BME280;1113;42.018;23.986;2022-12-29T06:01:18;93673.91;;;0.73;100.00
2214;BME280;1113;42.018;23.986;2022-12-29T06:03:45;93674.78;;;0.67;100.00
2214;BME280;1113;42.018;23.986;2022-12-29T06:06:13;93673.16;;;0.72;100.00
2214;BME280;1113;42.018;23.986;2022-12-29T06:08:40;93678.22;;;0.72;100.00
2214;BME280;1113;42.018;23.986;2022-12-29T06:11:06;93684.75;;;0.68;100.00
2214;BME280;1113;42.018;23.986;2022-12-29T06:13:33;93676.66;;;0.59;100.00
2214;BME280;1113;42.018;23.986;2022-12-29T06:16:00;93676.03;;;0.76;100.00
2214;BME280;1113;42.018;23.986;2022-12-29T06:18:30;93687.63;;;0.72;100.00
2214;BME280;1113;42.018;23.986;2022-12-29T06:20:59;93683.53;;;0.71;100.00
2214;BME280;1113;42.018;23.986;2022-12-29T06:23:28;93685.97;;;0.77;100.00
2214;BME280;1113;42.018;23.986;2022-12-29T06:25:55;93688.16;;;0.74;100.00
2214;BME280;1113;42.018;23.986;2022-12-29T06:28:23;93689.28;;;0.78;100.00
2214;BME280;1113;42.018;23.986;2022-12-29T06:30:50;93698.34;;;0.74;100.00
2214;BME280;1113;42.018;23.986;2022-12-29T06:33:17;93693.81;;;0.76;100.00
2214;BME280;1113;42.018;23.986;2022-12-29T06:35:44;93692.03;;;0.76;100.00
2214;BME280;1113;42.018;23.986;2022-12-29T06:38:12;93698.84;;;0.52;100.00
2214;BME280;1113;42.018;23.986;2022-12-29T06:40:41;93691.41;;;0.39;100.00
2214;BME280;1113;42.018;23.986;2022-12-29T06:43:10;93702.47;;;0.45;100.00
2214;BME280;1113;42.018;23.986;2022-12-29T06:45:37;93704.63;;;0.59;100.00
2214;BME280;1113;42.018;23.986;2022-12-29T06:48:04;93700.09;;;0.61;100.00
2214;BME280;1113;42.018;23.986;2022-12-29T06:50:31;93704.75;;;0.76;100.00
2214;BME280;1113;42.018;23.986;2022-12-29T06:52:58;93705.63;;;0.82;100.00
2214;BME280;1113;42.018;23.986;2022-12-29T06:55:25;93705.19;;;0.85;100.00
2214;BME280;1113;42.018;23.986;2022-12-29T06:57:55;93711.94;;;0.91;100.00
2214;BME280;1113;42.018;23.986;2022-12-29T07:00:22;93710.59;;;1.00;100.00
2214;BME280;1113;42.018;23.986;2022-12-29T07:02:49;93712.84;;;1.08;100.00
2214;BME280;1113;42.018;23.986;2022-12-29T07:05:15;93712.38;;;1.00;100.00
2214;BME280;1113;42.018;23.986;2022-12-29T07:07:42;93712.28;;;1.06;100.00
2214;BME280;1113;42.018;23.986;2022-12-29T07:10:09;93707.97;;;1.07;100.00
2214;BME280;1113;42.018;23.986;2022-12-29T07:12:36;93713.38;;;1.10;100.00
2214;BME280;1113;42.018;23.986;2022-12-29T07:15:05;93712.50;;;1.16;100.00
2214;BME280;1113;42.018;23.986;2022-12-29T07:17:32;93714.13;;;0.99;100.00
2214;BME280;1113;42.018;23.986;2022-12-29T07:19:58;93714.78;;;0.83;100.00
2214;BME280;1113;42.018;23.986;2022-12-29T07:22:25;93708.38;;;0.92;100.00
2214;BME280;1113;42.018;23.986;2022-12-29T07:24:52;93712.38;;;1.00;100.00
2214;BME280;1113;42.018;23.986;2022-12-29T07:27:19;93723.00;;;1.08;100.00
2214;BME280;1113;42.018;23.986;2022-12-29T07:29:46;93723.13;;;1.13;100.00
2214;BME280;1113;42.018;23.986;2022-12-29T07:32:14;93722.44;;;0.94;100.00
2214;BME280;1113;42.018;23.986;2022-12-29T07:34:41;93720.53;;;0.90;100.00
2214;BME280;1113;42.018;23.986;2022-12-29T07:37:10;93714.06;;;1.06;100.00
2214;BME280;1113;42.018;23.986;2022-12-29T07:39:39;93723.31;;;1.00;100.00
2214;BME280;1113;42.018;23.986;2022-12-29T07:42:06;93723.75;;;0.97;100.00
2214;BME280;1113;42.018;23.986;2022-12-29T07:44:33;93718.44;;;0.99;100.00
2214;BME280;1113;42.018;23.986;2022-12-29T07:46:59;93727.28;;;0.96;100.00
2214;BME280;1113;42.018;23.986;2022-12-29T07:49:28;93721.22;;;0.97;100.00
2214;BME280;1113;42.018;23.986;2022-12-29T07:51:54;93719.34;;;0.92;100.00
2214;BME280;1113;42.018;23.986;2022-12-29T07:54:21;93719.25;;;1.11;100.00
2214;BME280;1113;42.018;23.986;2022-12-29T07:56:48;93721.91;;;1.27;100.00
2214;BME280;1113;42.018;23.986;2022-12-29T07:59:15;64690.84;;;-142.54;100.00
2214;BME280;1113;42.018;23.986;2022-12-29T08:01:42;64690.84;;;-142.54;100.00
2214;BME280;1113;42.018;23.986;2022-12-29T08:04:09;64690.84;;;-142.54;100.00
2214;BME280;1113;42.018;23.986;2022-12-29T08:06:37;64690.84;;;-142.54;100.00
2214;BME280;1113;42.018;23.986;2022-12-29T08:09:04;64690.84;;;-142.54;100.00
2214;BME280;1113;42.018;23.986;2022-12-29T08:11:31;64690.84;;;-142.54;100.00
2214;BME280;1113;42.018;23.986;2022-12-29T08:14:08;64690.84;;;-142.54;100.00
2214;BME280;1113;42.018;23.986;2022-12-29T08:16:36;64690.84;;;-142.54;100.00
2214;BME280;1113;42.018;23.986;2022-12-29T08:19:03;64690.84;;;-142.54;100.00
2214;BME280;1113;42.018;23.986;2022-12-29T08:21:30;64690.84;;;-142.54;100.00
2214;BME280;1113;42.018;23.986;2022-12-29T08:23:59;64690.84;;;-142.54;100.00
2214;BME280;1113;42.018;23.986;2022-12-29T08:26:26;64690.84;;;-142.54;100.00
2214;BME280;1113;42.018;23.986;2022-12-29T08:28:53;64690.84;;;-142.54;100.00
2214;BME280;1113;42.018;23.986;2022-12-29T08:31:21;64690.84;;;-142.54;100.00
2214;BME280;1113;42.018;23.986;2022-12-29T08:33:48;64690.84;;;-142.54;100.00
2214;BME280;1113;42.018;23.986;2022-12-29T08:36:15;64690.84;;;-142.54;100.00
2214;BME280;1113;42.018;23.986;2022-12-29T08:38:42;64690.84;;;-142.54;100.00
2214;BME280;1113;42.018;23.986;2022-12-29T08:41:10;64690.84;;;-142.54;100.00
2214;BME280;1113;42.018;23.986;2022-12-29T08:43:36;64690.84;;;-142.54;100.00
2214;BME280;1113;42.018;23.986;2022-12-29T08:46:03;64690.84;;;-142.54;100.00
2214;BME280;1113;42.018;23.986;2022-12-29T08:48:30;64690.84;;;-142.54;100.00
2214;BME280;1113;42.018;23.986;2022-12-29T08:50:57;64690.84;;;-142.54;100.00
2214;BME280;1113;42.018;23.986;2022-12-29T08:53:24;64690.84;;;-142.54;100.00
2214;BME280;1113;42.018;23.986;2022-12-29T08:55:56;64690.84;;;-142.54;100.00
2214;BME280;1113;42.018;23.986;2022-12-29T08:58:25;64690.84;;;-142.54;100.00
2214;BME280;1113;42.018;23.986;2022-12-29T09:00:53;64690.84;;;-142.54;100.00
2214;BME280;1113;42.018;23.986;2022-12-29T09:03:20;64690.84;;;-142.54;100.00
2214;BME280;1113;42.018;23.986;2022-12-29T09:05:48;64690.84;;;-142.54;100.00
2214;BME280;1113;42.018;23.986;2022-12-29T09:08:15;64690.84;;;-142.54;100.00
2214;BME280;1113;42.018;23.986;2022-12-29T09:10:42;64690.84;;;-142.54;100.00
2214;BME280;1113;42.018;23.986;2022-12-29T09:13:08;64690.84;;;-142.54;100.00
2214;BME280;1113;42.018;23.986;2022-12-29T09:15:37;64690.84;;;-142.54;100.00
2214;BME280;1113;42.018;23.986;2022-12-29T09:18:04;64690.84;;;-142.54;100.00
2214;BME280;1113;42.018;23.986;2022-12-29T09:20:31;64690.84;;;-142.54;100.00
2214;BME280;1113;42.018;23.986;2022-12-29T09:22:58;64690.84;;;-142.54;100.00
2214;BME280;1113;42.018;23.986;2022-12-29T09:25:25;64690.84;;;-142.54;100.00
2214;BME280;1113;42.018;23.986;2022-12-29T09:27:52;64690.84;;;-142.54;100.00
2214;BME280;1113;42.018;23.986;2022-12-29T09:30:22;64690.84;;;-142.54;100.00
2214;BME280;1113;42.018;23.986;2022-12-29T09:32:51;64690.84;;;-142.54;100.00
2214;BME280;1113;42.018;23.986;2022-12-29T09:35:21;64690.84;;;-142.54;100.00
2214;BME280;1113;42.018;23.986;2022-12-29T09:37:48;64690.84;;;-142.54;100.00
2214;BME280;1113;42.018;23.986;2022-12-29T09:40:24;64690.84;;;-142.54;100.00
2214;BME280;1113;42.018;23.986;2022-12-29T09:43:02;64690.84;;;-142.54;100.00
2214;BME280;1113;42.018;23.986;2022-12-29T09:45:33;64690.84;;;-142.54;100.00
2214;BME280;1113;42.018;23.986;2022-12-29T09:48:14;64690.84;;;-142.54;100.00
2214;BME280;1113;42.018;23.986;2022-12-29T09:50:51;64690.84;;;-142.54;100.00
2214;BME280;1113;42.018;23.986;2022-12-29T09:53:23;64690.84;;;-142.54;100.00
2214;BME280;1113;42.018;23.986;2022-12-29T09:55:53;64690.84;;;-142.54;100.00
2214;BME280;1113;42.018;23.986;2022-12-29T09:58:24;64690.84;;;-142.54;100.00
2214;BME280;1113;42.018;23.986;2022-12-29T10:00:58;64690.84;;;-142.54;100.00
2214;BME280;1113;42.018;23.986;2022-12-29T10:03:36;64690.84;;;-142.54;100.00
2214;BME280;1113;42.018;23.986;2022-12-29T10:06:11;64690.84;;;-142.54;100.00
2214;BME280;1113;42.018;23.986;2022-12-29T10:08:43;64690.84;;;-142.54;100.00
2214;BME280;1113;42.018;23.986;2022-12-29T10:11:20;64690.84;;;-142.54;100.00
2214;BME280;1113;42.018;23.986;2022-12-29T10:14:10;64690.84;;;-142.54;100.00
2214;BME280;1113;42.018;23.986;2022-12-29T10:16:49;64690.84;;;-142.54;100.00
2214;BME280;1113;42.018;23.986;2022-12-29T10:19:39;64690.84;;;-142.54;100.00
2214;BME280;1113;42.018;23.986;2022-12-29T10:22:19;64690.84;;;-142.54;100.00
2214;BME280;1113;42.018;23.986;2022-12-29T10:24:52;64690.84;;;-142.54;100.00
2214;BME280;1113;42.018;23.986;2022-12-29T10:27:21;64690.84;;;-142.54;100.00
2214;BME280;1113;42.018;23.986;2022-12-29T10:29:52;64690.84;;;-142.54;100.00
2214;BME280;1113;42.018;23.986;2022-12-29T10:32:27;64690.84;;;-142.54;100.00
2214;BME280;1113;42.018;23.986;2022-12-29T10:34:59;64690.84;;;-142.54;100.00
2214;BME280;1113;42.018;23.986;2022-12-29T10:37:33;64690.84;;;-142.54;100.00
2214;BME280;1113;42.018;23.986;2022-12-29T10:40:03;64690.84;;;-142.54;100.00
2214;BME280;1113;42.018;23.986;2022-12-29T10:42:41;64690.84;;;-142.54;100.00
2214;BME280;1113;42.018;23.986;2022-12-29T10:45:13;64690.84;;;-142.54;100.00
2214;BME280;1113;42.018;23.986;2022-12-29T10:47:49;64690.84;;;-142.54;100.00
2214;BME280;1113;42.018;23.986;2022-12-29T10:50:19;64690.84;;;-142.54;100.00
2214;BME280;1113;42.018;23.986;2022-12-29T10:52:46;64690.84;;;-142.54;100.00
2214;BME280;1113;42.018;23.986;2022-12-29T10:55:18;64690.84;;;-142.54;100.00
2214;BME280;1113;42.018;23.986;2022-12-29T10:57:46;64690.84;;;-142.54;100.00
2214;BME280;1113;42.018;23.986;2022-12-29T11:00:19;64690.84;;;-142.54;100.00
2214;BME280;1113;42.018;23.986;2022-12-29T11:03:08;64690.84;;;-142.54;100.00
2214;BME280;1113;42.018;23.986;2022-12-29T11:05:41;64690.84;;;-142.54;100.00
2214;BME280;1113;42.018;23.986;2022-12-29T11:08:15;64690.84;;;-142.54;100.00
2214;BME280;1113;42.018;23.986;2022-12-29T11:10:45;64690.84;;;-142.54;100.00
2214;BME280;1113;42.018;23.986;2022-12-29T11:13:15;64690.84;;;-142.54;100.00
2214;BME280;1113;42.018;23.986;2022-12-29T11:15:44;64690.84;;;-142.54;100.00
2214;BME280;1113;42.018;23.986;2022-12-29T11:18:20;64690.84;;;-142.54;100.00
2214;BME280;1113;42.018;23.986;2022-12-29T11:20:49;64690.84;;;-142.54;100.00
2214;BME280;1113;42.018;23.986;2022-12-29T11:23:30;64690.84;;;-142.54;100.00
2214;BME280;1113;42.018;23.986;2022-12-29T11:26:15;64690.84;;;-142.54;100.00
2214;BME280;1113;42.018;23.986;2022-12-29T11:28:44;64690.84;;;-142.54;100.00
2214;BME280;1113;42.018;23.986;2022-12-29T11:31:15;64690.84;;;-142.54;100.00
2214;BME280;1113;42.018;23.986;2022-12-29T11:33:43;64690.84;;;-142.54;100.00
2214;BME280;1113;42.018;23.986;2022-12-29T11:36:14;64690.84;;;-142.54;100.00
2214;BME280;1113;42.018;23.986;2022-12-29T11:38:46;64690.84;;;-142.54;100.00
2214;BME280;1113;42.018;23.986;2022-12-29T11:41:22;64690.84;;;-142.54;100.00
2214;BME280;1113;42.018;23.986;2022-12-29T11:43:51;64690.84;;;-142.54;100.00
2214;BME280;1113;42.018;23.986;2022-12-29T11:46:21;64690.84;;;-142.54;100.00
2214;BME280;1113;42.018;23.986;2022-12-29T11:48:50;64690.84;;;-142.54;100.00
2214;BME280;1113;42.018;23.986;2022-12-29T11:51:27;64690.84;;;-142.54;100.00
2214;BME280;1113;42.018;23.986;2022-12-29T11:53:56;64690.84;;;-142.54;100.00
2214;BME280;1113;42.018;23.986;2022-12-29T11:56:34;64690.84;;;-142.54;100.00
2214;BME280;1113;42.018;23.986;2022-12-29T11:59:34;64690.84;;;-142.54;100.00
2214;BME280;1113;42.018;23.986;2022-12-29T12:02:17;64690.84;;;-142.54;100.00
2214;BME280;1113;42.018;23.986;2022-12-29T12:04:48;64690.84;;;-142.54;100.00
2214;BME280;1113;42.018;23.986;2022-12-29T12:07:20;64690.84;;;-142.54;100.00
2214;BME280;1113;42.018;23.986;2022-12-29T12:09:52;64690.84;;;-142.54;100.00
2214;BME280;1113;42.018;23.986;2022-12-29T12:12:24;64690.84;;;-142.54;100.00
2214;BME280;1113;42.018;23.986;2022-12-29T12:14:55;64690.84;;;-142.54;100.00
2214;BME280;1113;42.018;23.986;2022-12-29T12:17:29;64690.84;;;-142.54;100.00
2214;BME280;1113;42.018;23.986;2022-12-29T12:20:14;64690.84;;;-142.54;100.00
2214;BME280;1113;42.018;23.986;2022-12-29T12:22:51;64690.84;;;-142.54;100.00
2214;BME280;1113;42.018;23.986;2022-12-29T12:25:21;64690.84;;;-142.54;100.00
2214;BME280;1113;42.018;23.986;2022-12-29T12:27:53;64690.84;;;-142.54;100.00
2214;BME280;1113;42.018;23.986;2022-12-29T12:30:24;64690.84;;;-142.54;100.00
2214;BME280;1113;42.018;23.986;2022-12-29T12:32:57;64690.84;;;-142.54;100.00
2214;BME280;1113;42.018;23.986;2022-12-29T12:35:40;64690.84;;;-142.54;100.00
2214;BME280;1113;42.018;23.986;2022-12-29T12:38:23;64690.84;;;-142.54;100.00
2214;BME280;1113;42.018;23.986;2022-12-29T12:40:59;64690.84;;;-142.54;100.00
2214;BME280;1113;42.018;23.986;2022-12-29T12:43:54;64690.84;;;-142.54;100.00
2214;BME280;1113;42.018;23.986;2022-12-29T12:46:46;64690.84;;;-142.54;100.00
2214;BME280;1113;42.018;23.986;2022-12-29T12:52:25;64690.84;;;-142.54;100.00
2214;BME280;1113;42.018;23.986;2022-12-29T12:55:09;64690.84;;;-142.54;100.00
2214;BME280;1113;42.018;23.986;2022-12-29T12:57:46;64690.84;;;-142.54;100.00
2214;BME280;1113;42.018;23.986;2022-12-29T13:00:17;64690.84;;;-142.54;100.00
2214;BME280;1113;42.018;23.986;2022-12-29T13:02:54;64690.84;;;-142.54;100.00
2214;BME280;1113;42.018;23.986;2022-12-29T13:08:35;64690.84;;;-142.54;100.00
2214;BME280;1113;42.018;23.986;2022-12-29T13:11:16;64690.84;;;-142.54;100.00
2214;BME280;1113;42.018;23.986;2022-12-29T13:13:56;64690.84;;;-142.54;100.00
2214;BME280;1113;42.018;23.986;2022-12-29T13:16:31;64690.84;;;-142.54;100.00
2214;BME280;1113;42.018;23.986;2022-12-29T13:19:06;64690.84;;;-142.54;100.00
2214;BME280;1113;42.018;23.986;2022-12-29T13:21:46;64690.84;;;-142.54;100.00
2214;BME280;1113;42.018;23.986;2022-12-29T13:24:20;64690.84;;;-142.54;100.00
2214;BME280;1113;42.018;23.986;2022-12-29T13:43:06;93461.88;;;10.52;100.00
2214;BME280;1113;42.018;23.986;2022-12-29T13:45:34;93462.25;;;10.45;100.00